Time;durP1;ratioP1;P1;durP2;ratioP2;P2;SDS_P1;SDS_P2;PMS_P1;PMS_P2;Temp;Humidity;BMP_temperature;BMP_pressure;BME280_temperature;BME280_humidity;BME280_pressure;Samples;Min_cycle;Max_cycle;Signal;HPM_P1;HPM_P2
2023/02/27 00:00:47;;;;;;;8.68;3.40;;;;;;;;;;6126515;23;20379;-86
2023/02/27 00:03:21;;;;;;;9.25;3.10;;;;;;;;;;6126093;23;20383;-86
2023/02/27 00:05:55;;;;;;;8.88;3.08;;;;;;;;;;6162998;23;20674;-86
2023/02/27 00:08:27;;;;;;;11.38;3.05;;;;;;;;;;6163079;23;20378;-87
2023/02/27 00:10:55;;;;;;;9.45;3.10;;;;;;;;;;6153549;23;20367;-86
2023/02/27 00:13:23;;;;;;;10.38;3.50;;;;;;;;;;6126883;23;20379;-87
2023/02/27 00:15:56;;;;;;;8.43;3.28;;;;;;;;;;6163483;23;20387;-86
2023/02/27 00:18:25;;;;;;;8.70;3.13;;;;;;;;;;6126551;23;20387;-87
2023/02/27 00:20:58;;;;;;;10.75;3.20;;;;;;;;;;6150944;23;20391;-87
2023/02/27 00:23:26;;;;;;;9.85;3.45;;;;;;;;;;6153035;23;20387;-86
2023/02/27 00:25:54;;;;;;;8.55;3.22;;;;;;;;;;6127030;23;20386;-86
2023/02/27 00:28:23;;;;;;;9.68;3.25;;;;;;;;;;6125919;23;20391;-86
2023/02/27 00:30:55;;;;;;;9.00;3.42;;;;;;;;;;6126309;23;20391;-87
2023/02/27 00:33:24;;;;;;;13.93;3.33;;;;;;;;;;6125630;23;20390;-87
2023/02/27 00:35:58;;;;;;;8.73;3.05;;;;;;;;;;6162838;23;20705;-85
2023/02/27 00:38:27;;;;;;;11.48;3.45;;;;;;;;;;6125928;23;21058;-86
2023/02/27 00:41:00;;;;;;;10.03;3.47;;;;;;;;;;6150917;23;20475;-86
2023/02/27 00:43:28;;;;;;;10.18;3.40;;;;;;;;;;6152809;23;20379;-85
2023/02/27 00:45:56;;;;;;;7.67;3.30;;;;;;;;;;6153217;23;20371;-86
2023/02/27 00:48:30;;;;;;;8.30;3.20;;;;;;;;;;6126085;23;20394;-87
2023/02/27 00:51:03;;;;;;;10.57;3.10;;;;;;;;;;6126520;23;20383;-87
2023/02/27 00:53:31;;;;;;;9.18;3.30;;;;;;;;;;6125805;23;20383;-87
2023/02/27 00:55:59;;;;;;;10.80;3.80;;;;;;;;;;6125654;23;20383;-86
2023/02/27 00:58:32;;;;;;;13.65;3.63;;;;;;;;;;6162736;23;20371;-86
2023/02/27 01:00:59;;;;;;;7.82;2.95;;;;;;;;;;6152820;23;20363;-87
2023/02/27 01:03:28;;;;;;;10.18;3.35;;;;;;;;;;6126579;23;20837;-87
2023/02/27 01:05:58;;;;;;;10.23;3.83;;;;;;;;;;6152719;23;20375;-86
2023/02/27 01:08:25;;;;;;;9.15;3.53;;;;;;;;;;6126219;23;20386;-86
2023/02/27 01:10:54;;;;;;;10.15;3.33;;;;;;;;;;6126954;23;20697;-86
2023/02/27 01:13:26;;;;;;;14.13;3.53;;;;;;;;;;6126224;23;20401;-87
2023/02/27 01:15:59;;;;;;;9.88;3.13;;;;;;;;;;6150630;23;20382;-86
2023/02/27 01:18:32;;;;;;;11.23;3.28;;;;;;;;;;6162676;23;20386;-86
2023/02/27 01:21:07;;;;;;;10.70;3.33;;;;;;;;;;6125630;23;20375;-85
2023/02/27 01:23:39;;;;;;;8.75;3.30;;;;;;;;;;6125928;23;20410;-86
2023/02/27 01:26:12;;;;;;;12.30;3.40;;;;;;;;;;6150458;23;20375;-86
2023/02/27 01:28:45;;;;;;;11.00;3.40;;;;;;;;;;6125232;23;20386;-87
2023/02/27 01:31:18;;;;;;;9.57;3.60;;;;;;;;;;6127038;23;20487;-87
2023/02/27 01:33:47;;;;;;;9.32;3.20;;;;;;;;;;6126493;23;20784;-86
2023/02/27 01:36:16;;;;;;;8.90;3.10;;;;;;;;;;6125868;23;20404;-86
2023/02/27 01:38:49;;;;;;;9.63;3.13;;;;;;;;;;6127010;23;20387;-86
2023/02/27 01:41:22;;;;;;;10.98;3.30;;;;;;;;;;6125491;23;20406;-85
2023/02/27 01:43:56;;;;;;;9.47;3.33;;;;;;;;;;6150553;23;20391;-86
2023/02/27 01:46:24;;;;;;;10.63;3.60;;;;;;;;;;6150290;23;20658;-86
2023/02/27 01:48:59;;;;;;;9.77;3.40;;;;;;;;;;6126443;23;20391;-86
2023/02/27 01:51:35;;;;;;;13.95;3.38;;;;;;;;;;6150039;23;20397;-86
2023/02/27 01:54:04;;;;;;;10.95;3.67;;;;;;;;;;6152630;23;20372;-86
2023/02/27 01:56:31;;;;;;;10.00;3.38;;;;;;;;;;6126361;23;20389;-85
2023/02/27 01:59:02;;;;;;;9.32;3.50;;;;;;;;;;6125451;23;20382;-87
2023/02/27 02:01:35;;;;;;;10.03;3.77;;;;;;;;;;6162584;23;20400;-86
2023/02/27 02:04:06;;;;;;;12.27;3.47;;;;;;;;;;6127736;23;20404;-86
2023/02/27 02:06:44;;;;;;;9.85;3.47;;;;;;;;;;6127976;23;20383;-87
2023/02/27 02:09:13;;;;;;;15.85;3.70;;;;;;;;;;6152494;23;20855;-85
2023/02/27 02:11:46;;;;;;;10.25;3.90;;;;;;;;;;6152230;23;20390;-86
2023/02/27 02:14:17;;;;;;;11.50;3.67;;;;;;;;;;6152529;23;20398;-86
2023/02/27 02:17:05;;;;;;;10.32;3.65;;;;;;;;;;6128000;23;20870;-86
2023/02/27 02:19:54;;;;;;;10.32;3.60;;;;;;;;;;6127761;23;20385;-86
2023/02/27 02:22:58;;;;;;;12.90;4.13;;;;;;;;;;6128185;23;20955;-87
2023/02/27 02:25:41;;;;;;;9.27;3.47;;;;;;;;;;6127547;23;20414;-85
2023/02/27 02:28:20;;;;;;;10.45;3.85;;;;;;;;;;6163987;23;20713;-86
2023/02/27 02:31:18;;;;;;;12.38;3.92;;;;;;;;;;6127428;23;20398;-86
2023/02/27 02:34:07;;;;;;;9.20;3.58;;;;;;;;;;6127808;23;20704;-86
2023/02/27 02:36:50;;;;;;;9.65;3.38;;;;;;;;;;6127372;23;20383;-85
2023/02/27 02:39:42;;;;;;;12.37;3.73;;;;;;;;;;6164273;23;20378;-85
2023/02/27 02:42:18;;;;;;;10.03;3.63;;;;;;;;;;6128754;23;20452;-85
2023/02/27 02:44:54;;;;;;;10.48;3.60;;;;;;;;;;6151862;23;20387;-85
2023/02/27 02:47:28;;;;;;;12.45;3.60;;;;;;;;;;6164419;23;20363;-86
2023/02/27 02:50:04;;;;;;;9.43;3.60;;;;;;;;;;6127864;23;20382;-86
2023/02/27 02:52:36;;;;;;;10.15;3.88;;;;;;;;;;6127851;23;20398;-85
2023/02/27 02:55:12;;;;;;;9.82;3.20;;;;;;;;;;6128162;23;20866;-86
2023/02/27 02:57:42;;;;;;;13.02;3.80;;;;;;;;;;6126931;23;20390;-85
2023/02/27 03:00:16;;;;;;;8.93;3.60;;;;;;;;;;6128125;23;20393;-85
2023/02/27 03:02:53;;;;;;;11.65;3.88;;;;;;;;;;6128002;23;20876;-85
2023/02/27 03:05:24;;;;;;;10.48;4.10;;;;;;;;;;6127499;23;20393;-85
2023/02/27 03:07:54;;;;;;;11.60;3.90;;;;;;;;;;6127972;23;20382;-84
2023/02/27 03:10:26;;;;;;;11.98;3.85;;;;;;;;;;6127249;23;20394;-85
2023/02/27 03:13:01;;;;;;;11.48;3.80;;;;;;;;;;6163844;23;20692;-86
2023/02/27 03:15:36;;;;;;;12.50;3.90;;;;;;;;;;6164160;23;20378;-85
2023/02/27 03:18:06;;;;;;;11.32;3.95;;;;;;;;;;6127538;23;20386;-85
2023/02/27 03:20:37;;;;;;;11.57;3.85;;;;;;;;;;6127341;23;20389;-85
2023/02/27 03:23:07;;;;;;;10.32;3.78;;;;;;;;;;6127230;23;20387;-85
2023/02/27 03:25:37;;;;;;;12.00;4.18;;;;;;;;;;6127732;23;20387;-84
2023/02/27 03:28:07;;;;;;;11.73;4.05;;;;;;;;;;6127897;23;20891;-86
2023/02/27 03:30:43;;;;;;;11.57;4.20;;;;;;;;;;6127131;23;20391;-86
2023/02/27 03:33:13;;;;;;;13.38;4.32;;;;;;;;;;6126770;23;20383;-85
2023/02/27 03:35:50;;;;;;;12.27;4.03;;;;;;;;;;6127214;23;20380;-86
2023/02/27 03:38:21;;;;;;;10.52;3.97;;;;;;;;;;6127772;23;20386;-86
2023/02/27 03:41:02;;;;;;;11.40;3.80;;;;;;;;;;6126723;23;20405;-86
2023/02/27 03:43:40;;;;;;;14.75;4.22;;;;;;;;;;6127966;23;20841;-86
2023/02/27 03:46:11;;;;;;;11.32;4.00;;;;;;;;;;6127267;23;20704;-85
2023/02/27 03:48:44;;;;;;;11.70;4.05;;;;;;;;;;6127120;23;20382;-85
2023/02/27 03:51:12;;;;;;;9.48;3.97;;;;;;;;;;6127515;23;20701;-86
2023/02/27 03:53:47;;;;;;;10.57;4.40;;;;;;;;;;6163700;23;20709;-86
2023/02/27 03:56:23;;;;;;;9.80;4.10;;;;;;;;;;6151763;23;20445;-86
2023/02/27 03:58:51;;;;;;;12.43;4.00;;;;;;;;;;6127329;23;20391;-86
2023/02/27 04:01:24;;;;;;;11.90;3.92;;;;;;;;;;6126963;23;20390;-85
2023/02/27 04:03:54;;;;;;;12.27;4.40;;;;;;;;;;6127364;23;20390;-86
2023/02/27 04:09:39;;;;;;;11.98;4.47;;;;;;;;;;6126231;23;20383;-86
2023/02/27 04:12:20;;;;;;;15.70;4.50;;;;;;;;;;6126958;23;20391;-85
2023/02/27 04:15:03;;;;;;;11.87;4.50;;;;;;;;;;6151652;23;20430;-86
2023/02/27 04:17:33;;;;;;;11.95;4.65;;;;;;;;;;6126676;23;20389;-85
2023/02/27 04:20:24;;;;;;;13.37;4.30;;;;;;;;;;6158048;23;20379;-85
2023/02/27 04:22:54;;;;;;;12.90;4.65;;;;;;;;;;6126435;23;20383;-86
2023/02/27 04:25:33;;;;;;;13.73;4.50;;;;;;;;;;6151609;23;20387;-86
2023/02/27 04:28:07;;;;;;;11.57;4.63;;;;;;;;;;6163278;23;20418;-85
2023/02/27 04:30:42;;;;;;;13.40;4.90;;;;;;;;;;6151253;23;20682;-86
2023/02/27 04:33:19;;;;;;;11.63;4.90;;;;;;;;;;6163511;23;20407;-86
2023/02/27 04:35:49;;;;;;;11.70;4.70;;;;;;;;;;6163565;23;20363;-85
2023/02/27 04:38:19;;;;;;;12.52;4.53;;;;;;;;;;6127283;23;20417;-86
2023/02/27 04:40:49;;;;;;;12.63;4.78;;;;;;;;;;6151650;23;20383;-86
2023/02/27 04:43:21;;;;;;;10.70;4.60;;;;;;;;;;6127593;23;20712;-83
2023/02/27 04:45:55;;;;;;;15.02;4.72;;;;;;;;;;6163615;23;20386;-82
2023/02/27 04:48:24;;;;;;;11.68;5.22;;;;;;;;;;6153335;23;20367;-83
2023/02/27 04:50:59;;;;;;;13.50;4.85;;;;;;;;;;6127180;23;20394;-82
2023/02/27 04:53:31;;;;;;;12.32;4.72;;;;;;;;;;6163514;23;20379;-82
2023/02/27 04:56:05;;;;;;;13.35;5.07;;;;;;;;;;6151337;23;20375;-82
2023/02/27 04:58:41;;;;;;;16.73;5.03;;;;;;;;;;6127246;23;20405;-82
2023/02/27 05:01:17;;;;;;;12.00;5.00;;;;;;;;;;6152126;23;20383;-81
2023/02/27 05:03:52;;;;;;;13.73;5.22;;;;;;;;;;6163809;23;20382;-82
2023/02/27 05:06:27;;;;;;;13.90;5.18;;;;;;;;;;6151620;23;20384;-82
2023/02/27 05:09:03;;;;;;;14.15;5.63;;;;;;;;;;6163707;23;20378;-82
2023/02/27 05:11:39;;;;;;;16.17;5.40;;;;;;;;;;6126856;23;20387;-81
2023/02/27 05:14:16;;;;;;;13.90;5.20;;;;;;;;;;6127682;23;20375;-81
2023/02/27 05:16:51;;;;;;;14.90;5.45;;;;;;;;;;6126674;23;20390;-82
2023/02/27 05:19:24;;;;;;;14.57;5.30;;;;;;;;;;6160708;23;20900;-82
2023/02/27 05:21:57;;;;;;;15.80;5.78;;;;;;;;;;6153735;23;20370;-82
2023/02/27 05:24:35;;;;;;;16.98;5.95;;;;;;;;;;6127921;23;20848;-82
2023/02/27 05:27:18;;;;;;;15.27;5.68;;;;;;;;;;6127433;23;20413;-82
2023/02/27 05:29:53;;;;;;;17.67;5.90;;;;;;;;;;6163414;23;20363;-81
2023/02/27 05:32:33;;;;;;;16.45;6.10;;;;;;;;;;6126477;23;20389;-82
2023/02/27 05:35:13;;;;;;;16.87;5.67;;;;;;;;;;6126813;23;20402;-81
2023/02/27 05:37:43;;;;;;;14.48;6.00;;;;;;;;;;6163933;23;20363;-82
2023/02/27 05:40:12;;;;;;;13.77;6.18;;;;;;;;;;6155580;23;20367;-82
2023/02/27 05:42:47;;;;;;;16.38;6.80;;;;;;;;;;6152755;23;20436;-82
2023/02/27 05:45:23;;;;;;;16.77;6.97;;;;;;;;;;6153466;23;20394;-82
2023/02/27 05:47:58;;;;;;;16.00;7.80;;;;;;;;;;6128552;23;20375;-82
2023/02/27 05:50:32;;;;;;;18.97;7.97;;;;;;;;;;6164300;23;20382;-82
2023/02/27 05:53:07;;;;;;;13.93;6.75;;;;;;;;;;6129574;23;20386;-82
2023/02/27 05:55:37;;;;;;;16.30;6.07;;;;;;;;;;6155374;23;20371;-82
2023/02/27 05:58:14;;;;;;;14.15;6.07;;;;;;;;;;6165212;23;20378;-82
2023/02/27 06:00:45;;;;;;;15.40;6.38;;;;;;;;;;6128758;23;20394;-82
2023/02/27 06:03:13;;;;;;;20.33;7.45;;;;;;;;;;6123404;23;20408;-82
2023/02/27 06:05:42;;;;;;;16.92;7.28;;;;;;;;;;6154404;23;20363;-82
2023/02/27 06:08:10;;;;;;;17.02;7.15;;;;;;;;;;6127248;23;20383;-82
2023/02/27 06:10:38;;;;;;;15.90;7.20;;;;;;;;;;6127891;23;20386;-82
2023/02/27 06:13:11;;;;;;;15.10;6.78;;;;;;;;;;6164325;23;20383;-82
2023/02/27 06:15:45;;;;;;;16.75;6.88;;;;;;;;;;6129077;23;20844;-82
2023/02/27 06:18:13;;;;;;;21.88;7.70;;;;;;;;;;6127423;23;20378;-82
2023/02/27 06:20:41;;;;;;;16.73;7.07;;;;;;;;;;6155059;23;20832;-82
2023/02/27 06:23:10;;;;;;;16.85;7.55;;;;;;;;;;6154770;23;20812;-82
2023/02/27 06:25:38;;;;;;;16.13;7.70;;;;;;;;;;6128082;23;20413;-82
2023/02/27 06:28:06;;;;;;;19.83;7.43;;;;;;;;;;6128452;23;20406;-82
2023/02/27 06:30:34;;;;;;;20.55;8.30;;;;;;;;;;6155347;23;20370;-82
2023/02/27 06:33:03;;;;;;;17.48;7.55;;;;;;;;;;6154766;23;20375;-82
2023/02/27 06:35:36;;;;;;;19.05;7.60;;;;;;;;;;6152544;23;20689;-82
2023/02/27 06:38:09;;;;;;;14.75;6.88;;;;;;;;;;6128202;23;20859;-82
2023/02/27 06:40:37;;;;;;;20.00;7.93;;;;;;;;;;6127543;23;20394;-82
2023/02/27 06:43:10;;;;;;;22.47;7.63;;;;;;;;;;6151990;23;20386;-83
2023/02/27 06:45:38;;;;;;;19.17;7.25;;;;;;;;;;6127714;23;20383;-82
2023/02/27 06:48:07;;;;;;;18.92;7.22;;;;;;;;;;6151162;23;20375;-83
2023/02/27 06:50:35;;;;;;;19.88;7.40;;;;;;;;;;6126856;23;20378;-82
2023/02/27 06:53:08;;;;;;;18.20;7.33;;;;;;;;;;6152373;23;20394;-82
2023/02/27 06:55:36;;;;;;;26.02;8.20;;;;;;;;;;6128712;23;20393;-82
2023/02/27 06:58:03;;;;;;;20.38;7.75;;;;;;;;;;6152500;23;20398;-82
2023/02/27 07:00:36;;;;;;;18.92;7.60;;;;;;;;;;6152678;23;20379;-85
2023/02/27 07:03:11;;;;;;;16.88;7.63;;;;;;;;;;6164388;23;21132;-83
2023/02/27 07:05:40;;;;;;;23.38;7.72;;;;;;;;;;6126157;23;20387;-83
2023/02/27 07:08:16;;;;;;;21.75;7.32;;;;;;;;;;6126693;23;20390;-83
2023/02/27 07:10:45;;;;;;;20.27;7.55;;;;;;;;;;6164432;23;20987;-83
2023/02/27 07:13:18;;;;;;;18.88;7.60;;;;;;;;;;6128320;23;20387;-83
2023/02/27 07:15:46;;;;;;;20.23;7.70;;;;;;;;;;6154424;23;20367;-83
2023/02/27 07:18:20;;;;;;;15.60;7.25;;;;;;;;;;6152779;23;20391;-83
2023/02/27 07:20:49;;;;;;;17.88;7.03;;;;;;;;;;6127882;23;20375;-83
2023/02/27 07:23:23;;;;;;;17.33;7.18;;;;;;;;;;6135063;23;20383;-84
2023/02/27 07:25:50;;;;;;;17.83;7.10;;;;;;;;;;6147422;23;20762;-83
2023/02/27 07:28:23;;;;;;;19.55;7.40;;;;;;;;;;6136555;23;20397;-85
2023/02/27 07:30:56;;;;;;;24.33;7.55;;;;;;;;;;6140241;23;20386;-85
2023/02/27 07:33:25;;;;;;;18.85;6.97;;;;;;;;;;6115476;23;20379;-83
2023/02/27 07:35:53;;;;;;;20.33;7.07;;;;;;;;;;6115863;23;20712;-83
2023/02/27 07:38:27;;;;;;;20.48;7.65;;;;;;;;;;6141793;23;20417;-86
2023/02/27 07:40:55;;;;;;;19.70;7.40;;;;;;;;;;6115126;23;20383;-86
2023/02/27 07:43:28;;;;;;;20.13;8.05;;;;;;;;;;6134202;23;21238;-86
2023/02/27 07:46:02;;;;;;;17.20;7.97;;;;;;;;;;6146029;23;20375;-85
2023/02/27 07:48:38;;;;;;;18.17;7.63;;;;;;;;;;6142585;23;20379;-83
2023/02/27 07:51:11;;;;;;;20.35;7.45;;;;;;;;;;6134754;23;20383;-84
2023/02/27 07:53:39;;;;;;;19.38;7.72;;;;;;;;;;6109112;23;20398;-81
2023/02/27 07:56:07;;;;;;;20.25;7.57;;;;;;;;;;6137530;23;20844;-82
2023/02/27 07:58:40;;;;;;;22.33;7.00;;;;;;;;;;6117557;23;20698;-83
2023/02/27 08:01:08;;;;;;;19.15;7.20;;;;;;;;;;6109438;23;20399;-84
2023/02/27 08:03:37;;;;;;;25.48;9.05;;;;;;;;;;6135859;23;20370;-83
2023/02/27 08:06:10;;;;;;;21.80;9.73;;;;;;;;;;6149771;23;20836;-84
2023/02/27 08:08:38;;;;;;;20.95;8.75;;;;;;;;;;6110338;23;20390;-85
2023/02/27 08:11:11;;;;;;;23.60;8.40;;;;;;;;;;6111257;23;20879;-83
2023/02/27 08:13:38;;;;;;;20.02;8.35;;;;;;;;;;6111129;23;20848;-84
2023/02/27 08:16:06;;;;;;;22.70;8.18;;;;;;;;;;6110512;23;20390;-83
2023/02/27 08:18:41;;;;;;;19.50;7.75;;;;;;;;;;6136772;23;20398;-87
2023/02/27 08:21:09;;;;;;;18.58;7.28;;;;;;;;;;6139266;23;20372;-85
2023/02/27 08:23:41;;;;;;;19.93;7.03;;;;;;;;;;6114158;23;20923;-82
2023/02/27 08:26:14;;;;;;;15.23;7.80;;;;;;;;;;6149166;23;20382;-87
2023/02/27 08:28:47;;;;;;;18.83;7.30;;;;;;;;;;6139011;23;20785;-84
2023/02/27 08:31:20;;;;;;;23.25;7.57;;;;;;;;;;6141079;23;20397;-85
2023/02/27 08:33:55;;;;;;;21.92;7.20;;;;;;;;;;6142261;23;20383;-84
2023/02/27 08:36:23;;;;;;;18.63;7.20;;;;;;;;;;6111832;23;20394;-85
2023/02/27 08:38:50;;;;;;;25.20;7.18;;;;;;;;;;6137134;23;20414;-85
2023/02/27 08:41:18;;;;;;;16.35;6.78;;;;;;;;;;6110987;23;20386;-86
2023/02/27 08:43:51;;;;;;;15.05;6.78;;;;;;;;;;6109741;23;20383;-84
2023/02/27 08:46:24;;;;;;;17.98;7.05;;;;;;;;;;6115660;23;20394;-85
2023/02/27 08:48:58;;;;;;;17.30;7.18;;;;;;;;;;6115107;23;20387;-84
2023/02/27 08:51:31;;;;;;;16.80;6.90;;;;;;;;;;6115290;23;20387;-86
2023/02/27 08:53:59;;;;;;;19.00;7.00;;;;;;;;;;6111030;23;20394;-83
2023/02/27 08:56:27;;;;;;;17.45;7.10;;;;;;;;;;6111300;23;20386;-86
2023/02/27 08:59:01;;;;;;;19.08;6.50;;;;;;;;;;6139446;23;20383;-85
2023/02/27 09:01:34;;;;;;;17.33;6.40;;;;;;;;;;6114615;23;20748;-85
2023/02/27 09:04:03;;;;;;;15.85;6.13;;;;;;;;;;6108451;23;20396;-85
2023/02/27 09:06:36;;;;;;;16.33;6.07;;;;;;;;;;6108376;23;20390;-87
2023/02/27 09:09:05;;;;;;;13.77;5.32;;;;;;;;;;6138896;23;20375;-85
2023/02/27 09:11:38;;;;;;;15.38;5.38;;;;;;;;;;6150011;23;20383;-85
2023/02/27 09:14:06;;;;;;;15.02;4.78;;;;;;;;;;6109601;23;20809;-86
2023/02/27 09:16:38;;;;;;;15.90;5.13;;;;;;;;;;6115677;23;21155;-86
2023/02/27 09:19:13;;;;;;;12.15;5.22;;;;;;;;;;6146767;23;20382;-86
2023/02/27 09:21:46;;;;;;;15.32;5.22;;;;;;;;;;6108004;23;20379;-86
2023/02/27 09:24:19;;;;;;;17.73;5.40;;;;;;;;;;6134449;23;20378;-86
2023/02/27 09:26:52;;;;;;;11.70;4.05;;;;;;;;;;6112432;23;20395;-87
2023/02/27 09:29:26;;;;;;;15.52;4.07;;;;;;;;;;6116487;23;20396;-87
2023/02/27 09:31:59;;;;;;;14.80;4.78;;;;;;;;;;6134803;23;20395;-85
2023/02/27 09:34:33;;;;;;;17.52;4.10;;;;;;;;;;6110933;23;20390;-88
2023/02/27 09:37:06;;;;;;;16.70;5.05;;;;;;;;;;6114173;23;20394;-87
2023/02/27 09:39:35;;;;;;;15.83;4.83;;;;;;;;;;6116522;23;20386;-88
2023/02/27 09:42:05;;;;;;;11.77;4.50;;;;;;;;;;6111284;23;20387;-88
2023/02/27 09:44:39;;;;;;;16.77;4.60;;;;;;;;;;6112135;23;20391;-88
2023/02/27 09:47:12;;;;;;;14.30;4.38;;;;;;;;;;6110974;23;20831;-88
2023/02/27 09:49:47;;;;;;;9.03;3.33;;;;;;;;;;6115525;23;20679;-88
2023/02/27 09:52:19;;;;;;;7.70;2.90;;;;;;;;;;6110345;23;20398;-88
2023/02/27 09:54:48;;;;;;;10.65;2.95;;;;;;;;;;6125739;23;20387;-83
2023/02/27 09:57:18;;;;;;;12.00;2.92;;;;;;;;;;6137891;23;20867;-88
2023/02/27 09:59:47;;;;;;;7.57;2.38;;;;;;;;;;6138385;23;20387;-89
2023/02/27 10:02:22;;;;;;;9.75;2.67;;;;;;;;;;6110592;23;20383;-88
2023/02/27 10:04:53;;;;;;;10.82;2.55;;;;;;;;;;6147525;23;20370;-89
2023/02/27 10:07:26;;;;;;;10.13;2.53;;;;;;;;;;6110136;23;20864;-88
2023/02/27 10:10:04;;;;;;;10.27;2.45;;;;;;;;;;6112047;23;20398;-87
2023/02/27 10:12:45;;;;;;;10.75;2.20;;;;;;;;;;6150906;23;20367;-88
2023/02/27 10:15:15;;;;;;;7.68;2.10;;;;;;;;;;6138463;23;20386;-87
2023/02/27 10:17:50;;;;;;;6.23;2.10;;;;;;;;;;6114882;23;20495;-88
2023/02/27 10:20:27;;;;;;;7.65;2.33;;;;;;;;;;6135622;23;20389;-89
2023/02/27 10:23:01;;;;;;;10.00;2.28;;;;;;;;;;6141451;23;20701;-89
2023/02/27 10:25:36;;;;;;;6.95;1.95;;;;;;;;;;6140998;23;20393;-87
2023/02/27 10:28:11;;;;;;;6.15;1.95;;;;;;;;;;6116518;23;20406;-89
2023/02/27 10:30:46;;;;;;;8.57;1.77;;;;;;;;;;6139045;23;20398;-88
2023/02/27 10:33:24;;;;;;;9.15;1.85;;;;;;;;;;6136488;23;20379;-87
2023/02/27 10:35:58;;;;;;;5.38;1.70;;;;;;;;;;6149760;23;20386;-86
2023/02/27 10:38:32;;;;;;;8.23;2.00;;;;;;;;;;6117114;23;20391;-87
2023/02/27 10:41:01;;;;;;;7.43;2.00;;;;;;;;;;6139857;23;20367;-88
2023/02/27 10:43:34;;;;;;;4.93;1.47;;;;;;;;;;6148058;23;20975;-87
2023/02/27 10:46:02;;;;;;;7.03;1.83;;;;;;;;;;6151464;23;20366;-87
2023/02/27 10:48:35;;;;;;;8.57;1.90;;;;;;;;;;6138298;23;20387;-87
2023/02/27 10:51:22;;;;;;;5.88;1.95;;;;;;;;;;6148399;23;20387;-87
2023/02/27 10:53:51;;;;;;;6.70;1.90;;;;;;;;;;6149578;23;20363;-88
2023/02/27 10:56:23;;;;;;;4.65;1.80;;;;;;;;;;6146996;23;20379;-87
2023/02/27 10:59:02;;;;;;;7.13;1.83;;;;;;;;;;6108930;23;20387;-87
2023/02/27 11:01:42;;;;;;;7.75;1.98;;;;;;;;;;6135561;23;20387;-87
2023/02/27 11:04:11;;;;;;;5.60;2.00;;;;;;;;;;6109438;23;20405;-87
2023/02/27 11:06:41;;;;;;;6.28;2.17;;;;;;;;;;6137760;23;20387;-87
2023/02/27 11:09:19;;;;;;;7.78;2.28;;;;;;;;;;6111919;23;20387;-83
2023/02/27 11:11:52;;;;;;;6.35;2.10;;;;;;;;;;6139269;23;20374;-86
2023/02/27 11:14:27;;;;;;;5.95;1.90;;;;;;;;;;6155131;23;20379;-85
2023/02/27 11:16:56;;;;;;;7.17;2.00;;;;;;;;;;6114660;23;20742;-85
2023/02/27 11:19:25;;;;;;;6.53;2.20;;;;;;;;;;6111619;23;20387;-85
2023/02/27 11:22:04;;;;;;;7.45;2.20;;;;;;;;;;6111139;23;20386;-86
2023/02/27 11:24:32;;;;;;;5.32;1.80;;;;;;;;;;6114531;23;20390;-85
2023/02/27 11:27:17;;;;;;;6.95;2.28;;;;;;;;;;6114783;23;20390;-87
2023/02/27 11:29:57;;;;;;;7.13;2.10;;;;;;;;;;6112256;23;20383;-86
2023/02/27 11:32:35;;;;;;;7.43;2.10;;;;;;;;;;6110300;23;20789;-84
2023/02/27 11:35:04;;;;;;;6.93;2.15;;;;;;;;;;6128906;23;21078;-84
2023/02/27 11:37:40;;;;;;;7.28;2.10;;;;;;;;;;6149002;23;20393;-85
2023/02/27 11:40:15;;;;;;;6.72;1.98;;;;;;;;;;6108911;23;20398;-84
2023/02/27 11:42:44;;;;;;;7.70;1.80;;;;;;;;;;6109739;23;20379;-82
2023/02/27 11:45:24;;;;;;;7.22;2.00;;;;;;;;;;6108807;23;20418;-81
2023/02/27 11:47:53;;;;;;;6.97;1.98;;;;;;;;;;6109043;23;20390;-85
2023/02/27 11:50:47;;;;;;;7.57;2.30;;;;;;;;;;6147994;23;20390;-83
2023/02/27 11:53:38;;;;;;;10.48;2.35;;;;;;;;;;6112353;23;20390;-82
2023/02/27 11:56:09;;;;;;;6.65;1.95;;;;;;;;;;6112285;23;20394;-84
2023/02/27 11:58:45;;;;;;;7.03;2.10;;;;;;;;;;6136044;23;20387;-85
2023/02/27 12:01:21;;;;;;;5.93;1.92;;;;;;;;;;6111833;23;20421;-85
2023/02/27 12:03:57;;;;;;;6.72;1.60;;;;;;;;;;6153066;23;20383;-84
2023/02/27 12:06:35;;;;;;;5.88;1.85;;;;;;;;;;6111321;23;20394;-83
2023/02/27 12:09:06;;;;;;;6.70;1.85;;;;;;;;;;6135722;23;20393;-81
2023/02/27 12:11:41;;;;;;;7.35;1.90;;;;;;;;;;6133578;23;20386;-83
2023/02/27 12:14:15;;;;;;;7.37;2.03;;;;;;;;;;6135270;23;20371;-83
2023/02/27 12:16:51;;;;;;;6.22;1.80;;;;;;;;;;6116324;23;20395;-81
2023/02/27 12:19:21;;;;;;;5.93;1.50;;;;;;;;;;6161249;23;20367;-82
2023/02/27 12:21:50;;;;;;;4.73;1.40;;;;;;;;;;6126764;23;20844;-82
2023/02/27 12:24:27;;;;;;;5.72;1.38;;;;;;;;;;6162626;23;20371;-82
2023/02/27 12:26:57;;;;;;;5.80;1.70;;;;;;;;;;6126254;23;20882;-83
2023/02/27 12:29:28;;;;;;;6.35;1.50;;;;;;;;;;6126940;23;20386;-82
2023/02/27 12:32:02;;;;;;;4.82;1.48;;;;;;;;;;6161508;23;20378;-82
2023/02/27 12:34:38;;;;;;;5.55;1.60;;;;;;;;;;6161962;23;20379;-83
2023/02/27 12:37:11;;;;;;;5.78;1.48;;;;;;;;;;6124956;23;20394;-84
2023/02/27 12:39:46;;;;;;;4.28;1.33;;;;;;;;;;6161917;23;20371;-81
2023/02/27 12:42:36;;;;;;;5.07;1.30;;;;;;;;;;6125805;23;20708;-82
2023/02/27 12:45:17;;;;;;;5.05;1.25;;;;;;;;;;6125532;23;20375;-83
2023/02/27 12:47:56;;;;;;;5.65;1.38;;;;;;;;;;6149478;23;20409;-82
2023/02/27 12:50:24;;;;;;;4.38;1.02;;;;;;;;;;6150285;23;20391;-81
2023/02/27 12:53:01;;;;;;;3.15;0.90;;;;;;;;;;6162061;23;20749;-82
2023/02/27 12:55:31;;;;;;;3.03;0.90;;;;;;;;;;6149921;23;20879;-82
2023/02/27 12:58:16;;;;;;;4.90;1.10;;;;;;;;;;6149815;23;20393;-81
2023/02/27 13:00:46;;;;;;;5.35;1.30;;;;;;;;;;6125720;23;20387;-81
2023/02/27 13:03:22;;;;;;;4.80;1.15;;;;;;;;;;6149659;23;20410;-83
2023/02/27 13:05:57;;;;;;;3.00;1.20;;;;;;;;;;6125131;23;20379;-82
2023/02/27 13:08:57;;;;;;;3.22;1.00;;;;;;;;;;6161776;23;20896;-81
2023/02/27 13:11:37;;;;;;;3.50;1.00;;;;;;;;;;6093483;23;20899;-82
2023/02/27 13:14:16;;;;;;;2.67;0.80;;;;;;;;;;6162034;23;20379;-82
2023/02/27 13:16:55;;;;;;;3.35;0.90;;;;;;;;;;6161776;23;20379;-82
2023/02/27 13:19:26;;;;;;;3.25;1.00;;;;;;;;;;6149734;23;20398;-82
2023/02/27 13:21:54;;;;;;;3.72;0.98;;;;;;;;;;6125147;23;20387;-82
2023/02/27 13:24:24;;;;;;;4.55;1.65;;;;;;;;;;6152139;23;20367;-82
2023/02/27 13:27:01;;;;;;;4.55;1.55;;;;;;;;;;6161981;23;20848;-82
2023/02/27 13:29:34;;;;;;;3.17;1.30;;;;;;;;;;6162070;23;20369;-82
2023/02/27 13:32:04;;;;;;;4.82;1.30;;;;;;;;;;6149461;23;20383;-82
2023/02/27 13:34:39;;;;;;;3.60;1.00;;;;;;;;;;6161914;23;20383;-82
2023/02/27 13:37:12;;;;;;;4.68;1.40;;;;;;;;;;6161152;23;20382;-81
2023/02/27 13:40:00;;;;;;;7.57;1.40;;;;;;;;;;6152908;23;20949;-82
2023/02/27 13:42:46;;;;;;;3.42;1.10;;;;;;;;;;6125182;23;20387;-81
2023/02/27 13:45:33;;;;;;;5.72;1.40;;;;;;;;;;6125479;23;20383;-82
2023/02/27 13:48:02;;;;;;;4.90;1.25;;;;;;;;;;6152245;23;20812;-82
2023/02/27 13:50:50;;;;;;;4.22;1.30;;;;;;;;;;6124582;23;20378;-81
2023/02/27 13:53:19;;;;;;;5.38;1.20;;;;;;;;;;6161686;23;20367;-82
2023/02/27 13:55:47;;;;;;;2.37;0.97;;;;;;;;;;6113860;23;20448;-84
2023/02/27 13:58:17;;;;;;;3.95;1.10;;;;;;;;;;6108899;23;20390;-82
2023/02/27 14:00:54;;;;;;;5.03;1.45;;;;;;;;;;6116691;23;20383;-84
2023/02/27 14:03:24;;;;;;;2.92;1.00;;;;;;;;;;6137778;23;20964;-81
2023/02/27 14:06:01;;;;;;;5.25;1.38;;;;;;;;;;6148439;23;20379;-82
2023/02/27 14:08:30;;;;;;;4.45;1.20;;;;;;;;;;6131670;23;20374;-81
2023/02/27 14:10:59;;;;;;;3.05;1.20;;;;;;;;;;6132996;23;20374;-81
2023/02/27 14:13:57;;;;;;;4.68;1.42;;;;;;;;;;6129970;23;20394;-80
2023/02/27 14:16:44;;;;;;;6.25;1.60;;;;;;;;;;6108845;23;20386;-80
2023/02/27 14:19:27;;;;;;;6.18;1.88;;;;;;;;;;6103157;23;20394;-81
2023/02/27 14:22:01;;;;;;;3.58;1.40;;;;;;;;;;6145297;23;20816;-83
2023/02/27 14:24:38;;;;;;;3.47;1.23;;;;;;;;;;6106426;23;20393;-83
2023/02/27 14:27:15;;;;;;;6.30;1.38;;;;;;;;;;6148525;23;21118;-81
2023/02/27 14:29:45;;;;;;;4.30;1.20;;;;;;;;;;6148752;23;20359;-83
2023/02/27 14:32:19;;;;;;;3.08;1.00;;;;;;;;;;6141291;23;21185;-82
2023/02/27 14:34:54;;;;;;;4.00;1.38;;;;;;;;;;6136601;23;21146;-81
2023/02/27 14:37:24;;;;;;;4.70;1.20;;;;;;;;;;6137565;23;20375;-81
2023/02/27 14:39:53;;;;;;;3.07;1.17;;;;;;;;;;6111148;23;21266;-85
2023/02/27 14:42:32;;;;;;;5.35;1.13;;;;;;;;;;6115402;23;20394;-81
2023/02/27 14:45:12;;;;;;;5.13;1.27;;;;;;;;;;6106981;23;20390;-81
2023/02/27 14:47:45;;;;;;;3.63;1.10;;;;;;;;;;6144169;23;20617;-86
2023/02/27 14:50:23;;;;;;;3.40;1.10;;;;;;;;;;6137220;23;20363;-82
2023/02/27 14:52:51;;;;;;;2.80;1.00;;;;;;;;;;6144214;23;20424;-83
2023/02/27 14:55:28;;;;;;;2.63;1.20;;;;;;;;;;6133905;23;20430;-81
2023/02/27 14:57:57;;;;;;;3.95;1.05;;;;;;;;;;6109821;23;20390;-83
2023/02/27 15:00:35;;;;;;;3.38;1.17;;;;;;;;;;6149935;23;20383;-80
2023/02/27 15:03:16;;;;;;;4.00;1.40;;;;;;;;;;6132474;23;20456;-82
2023/02/27 15:05:51;;;;;;;6.43;1.30;;;;;;;;;;6135882;23;20680;-81
2023/02/27 15:08:26;;;;;;;5.45;1.20;;;;;;;;;;6107907;23;20379;-83
2023/02/27 15:10:54;;;;;;;4.78;1.42;;;;;;;;;;6140872;23;20371;-81
2023/02/27 15:13:28;;;;;;;5.57;1.30;;;;;;;;;;6132579;23;20387;-79
2023/02/27 15:16:21;;;;;;;5.03;1.35;;;;;;;;;;6146916;23;20847;-79